Time;durP1;ratioP1;P1;durP2;ratioP2;P2;SDS_P1;SDS_P2;PMS_P1;PMS_P2;Temp;Humidity;BMP_temperature;BMP_pressure;BME280_temperature;BME280_humidity;BME280_pressure;Samples;Min_cycle;Max_cycle;Signal;HPM_P1;HPM_P2
2021/05/19 00:01:49;;;;;;;0.70;0.70;;;;;;;-144.31;100.00;58022.63;5082847;28;20703;-76
2021/05/19 00:04:15;;;;;;;1.00;1.00;;;;;;;-144.31;100.00;58022.63;5082755;28;20506;-76
2021/05/19 00:06:41;;;;;;;0.80;0.80;;;;;;;-144.31;100.00;58022.63;5091844;28;20097;-74
2021/05/19 00:09:09;;;;;;;0.90;0.90;;;;;;;-144.31;100.00;58022.63;5087029;28;20516;-76
2021/05/19 00:11:36;;;;;;;0.70;0.70;;;;;;;-144.31;100.00;58022.63;5086454;28;20085;-76
2021/05/19 00:14:05;;;;;;;0.73;0.73;;;;;;;-144.31;100.00;58022.63;5087400;28;20431;-76
2021/05/19 00:16:30;;;;;;;0.70;0.70;;;;;;;-144.31;100.00;58022.63;5087438;28;20467;-76
2021/05/19 00:18:56;;;;;;;0.60;0.60;;;;;;;-144.31;100.00;58022.63;5089513;28;20043;-77
2021/05/19 00:21:21;;;;;;;0.70;0.70;;;;;;;-144.31;100.00;58022.63;5090031;28;20020;-76
2021/05/19 00:23:47;;;;;;;0.70;0.70;;;;;;;-144.31;100.00;58022.63;5089576;28;20036;-76
2021/05/19 00:26:12;;;;;;;0.60;0.60;;;;;;;-144.31;100.00;58022.63;5090167;28;20058;-77
2021/05/19 00:28:38;;;;;;;0.70;0.70;;;;;;;-144.31;100.00;58022.63;5088077;28;20030;-76
2021/05/19 00:31:05;;;;;;;0.70;0.70;;;;;;;-144.31;100.00;58022.63;5087283;28;20544;-76
2021/05/19 00:33:31;;;;;;;0.70;0.70;;;;;;;-144.31;100.00;58022.63;5087512;28;20687;-76
2021/05/19 00:35:56;;;;;;;0.60;0.60;;;;;;;-144.31;100.00;58022.63;5088077;28;20028;-74
2021/05/19 00:38:25;;;;;;;0.70;0.70;;;;;;;-144.31;100.00;58022.63;5090302;28;20093;-77
2021/05/19 00:40:50;;;;;;;0.60;0.60;;;;;;;-144.31;100.00;58022.63;5092765;28;20051;-76
2021/05/19 00:43:18;;;;;;;0.60;0.60;;;;;;;-144.31;100.00;58022.63;5087977;28;20067;-75
2021/05/19 00:45:46;;;;;;;0.70;0.70;;;;;;;-144.31;100.00;58022.63;5086898;28;20115;-76
2021/05/19 00:48:14;;;;;;;0.70;0.70;;;;;;;-144.31;100.00;58022.63;5087462;28;20032;-75
2021/05/19 00:50:40;;;;;;;0.60;0.60;;;;;;;-144.31;100.00;58022.63;5090029;28;20082;-76
2021/05/19 00:53:09;;;;;;;0.55;0.55;;;;;;;-144.31;100.00;58022.63;5087527;28;20028;-75
2021/05/19 00:55:36;;;;;;;0.52;0.52;;;;;;;-144.31;100.00;58022.63;5091229;28;20059;-76
2021/05/19 00:58:02;;;;;;;0.60;0.60;;;;;;;-144.31;100.00;58022.63;5090768;28;20169;-76
2021/05/19 01:00:28;;;;;;;0.60;0.60;;;;;;;-144.31;100.00;58022.63;5088840;28;20065;-76
2021/05/19 01:02:54;;;;;;;0.60;0.60;;;;;;;-144.31;100.00;58022.63;5091501;28;20020;-76
2021/05/19 01:05:35;;;;;;;0.60;0.60;;;;;;;-144.31;100.00;58022.63;5093110;28;20711;-76
2021/05/19 01:10:46;;;;;;;0.50;0.50;;;;;;;-144.31;100.00;58022.63;5085938;28;20066;-76
2021/05/19 01:13:12;;;;;;;0.60;0.60;;;;;;;-144.31;100.00;58022.63;5090935;28;20054;-75
2021/05/19 01:15:38;;;;;;;0.50;0.50;;;;;;;-144.31;100.00;58022.63;5092264;28;20055;-75
2021/05/19 01:18:05;;;;;;;0.60;0.60;;;;;;;-144.31;100.00;58022.63;5090633;28;20479;-77
2021/05/19 01:20:31;;;;;;;0.60;0.60;;;;;;;-144.31;100.00;58022.63;5091480;28;20035;-76
2021/05/19 01:22:57;;;;;;;0.60;0.60;;;;;;;-144.31;100.00;58022.63;5091958;28;20036;-76
2021/05/19 01:25:22;;;;;;;0.60;0.60;;;;;;;-144.31;100.00;58022.63;5090489;28;20028;-75
2021/05/19 01:27:56;;;;;;;0.63;0.63;;;;;;;-144.31;100.00;58022.63;5092055;28;20036;-76
2021/05/19 01:30:22;;;;;;;0.75;0.75;;;;;;;-144.31;100.00;58022.63;5091991;28;20031;-76
2021/05/19 01:32:50;;;;;;;0.60;0.60;;;;;;;-144.31;100.00;58022.63;5090313;28;20414;-75
2021/05/19 01:35:16;;;;;;;0.75;0.75;;;;;;;-144.31;100.00;58022.63;5092476;28;20462;-76
2021/05/19 01:37:44;;;;;;;0.70;0.70;;;;;;;-144.31;100.00;58022.63;5094705;28;20229;-75
2021/05/19 01:40:12;;;;;;;0.70;0.70;;;;;;;-144.31;100.00;58022.63;5093617;28;20020;-76
2021/05/19 01:42:44;;;;;;;0.65;0.65;;;;;;;-144.31;100.00;58022.63;5093639;28;20088;-76
2021/05/19 01:45:10;;;;;;;0.70;0.70;;;;;;;-144.31;100.00;58022.63;5088758;28;20609;-76
2021/05/19 01:47:50;;;;;;;0.60;0.60;;;;;;;-144.31;100.00;58022.63;5091323;28;20028;-77
2021/05/19 01:50:18;;;;;;;0.70;0.70;;;;;;;-144.31;100.00;58022.63;5092787;28;20395;-77
2021/05/19 01:52:45;;;;;;;0.80;0.80;;;;;;;-144.31;100.00;58022.63;5090590;28;20028;-77
2021/05/19 01:55:12;;;;;;;0.75;0.75;;;;;;;-144.31;100.00;58022.63;5091263;28;20027;-77
2021/05/19 01:57:37;;;;;;;0.80;0.80;;;;;;;-144.31;100.00;58022.63;5090751;28;20440;-76
2021/05/19 02:00:05;;;;;;;0.70;0.70;;;;;;;-144.31;100.00;58022.63;5091545;28;20486;-75
2021/05/19 02:02:31;;;;;;;0.70;0.70;;;;;;;-144.31;100.00;58022.63;5091770;28;20031;-75
2021/05/19 02:04:59;;;;;;;0.70;0.70;;;;;;;-144.31;100.00;58022.63;5092734;28;20034;-75
2021/05/19 02:07:24;;;;;;;;;;;;;;;-144.31;100.00;58022.63;5090514;28;20114;-76
2021/05/19 02:09:50;;;;;;;0.65;0.65;;;;;;;-144.31;100.00;58022.63;5090384;28;20447;-76
2021/05/19 02:12:16;;;;;;;0.70;0.70;;;;;;;-144.31;100.00;58022.63;5089988;28;20368;-76
2021/05/19 02:14:41;;;;;;;0.70;0.70;;;;;;;-144.31;100.00;58022.63;5089944;28;20155;-76
2021/05/19 02:17:07;;;;;;;0.60;0.60;;;;;;;-144.31;100.00;58022.63;5092681;28;20504;-76
2021/05/19 02:19:33;;;;;;;0.60;0.60;;;;;;;-144.31;100.00;58022.63;5094153;28;20036;-76
2021/05/19 02:21:58;;;;;;;0.68;0.68;;;;;;;-144.31;100.00;58022.63;5090521;28;20383;-76
2021/05/19 02:24:23;;;;;;;0.70;0.70;;;;;;;-144.31;100.00;58022.63;5089702;28;20068;-76
2021/05/19 02:26:49;;;;;;;0.60;0.60;;;;;;;-144.31;100.00;58022.63;5090762;28;20036;-76
2021/05/19 02:29:15;;;;;;;0.70;0.70;;;;;;;-144.31;100.00;58022.63;5091419;28;20087;-77
2021/05/19 02:31:44;;;;;;;0.70;0.70;;;;;;;-144.31;100.00;58022.63;5091853;28;20028;-76
2021/05/19 02:34:10;;;;;;;0.70;0.70;;;;;;;-144.31;100.00;58022.63;5089851;28;20031;-76
2021/05/19 02:36:38;;;;;;;0.60;0.60;;;;;;;-144.31;100.00;58022.63;5090653;28;20020;-74
2021/05/19 02:39:08;;;;;;;0.60;0.60;;;;;;;-144.31;100.00;58022.63;5088983;28;20048;-76
2021/05/19 02:41:33;;;;;;;0.70;0.70;;;;;;;-144.31;100.00;58022.63;5089533;28;20024;-76
2021/05/19 02:44:01;;;;;;;0.68;0.68;;;;;;;-144.31;100.00;58022.63;5090673;28;20035;-76
2021/05/19 02:46:26;;;;;;;;;;;;;;;-144.31;100.00;58022.63;5089833;28;20028;-76
2021/05/19 02:49:01;;;;;;;0.60;0.60;;;;;;;-144.31;100.00;58022.63;5089498;28;19915;-76
2021/05/19 02:51:30;;;;;;;0.60;0.60;;;;;;;-144.31;100.00;58022.63;5088986;28;20553;-76
2021/05/19 02:53:55;;;;;;;0.60;0.60;;;;;;;-144.31;100.00;58022.63;5089190;28;20028;-76
2021/05/19 02:56:23;;;;;;;0.70;0.70;;;;;;;-144.31;100.00;58022.63;5091065;28;20348;-76
2021/05/19 02:58:49;;;;;;;0.70;0.70;;;;;;;-144.31;100.00;58022.63;5088707;28;20391;-76
2021/05/19 03:01:15;;;;;;;0.60;0.60;;;;;;;-144.31;100.00;58022.63;5094445;28;20027;-75
2021/05/19 03:03:40;;;;;;;0.70;0.70;;;;;;;-144.31;100.00;58022.63;5087768;28;20027;-76
2021/05/19 03:06:06;;;;;;;0.60;0.60;;;;;;;-144.31;100.00;58022.63;5089620;28;20553;-77
2021/05/19 03:08:31;;;;;;;0.63;0.63;;;;;;;-144.31;100.00;58022.63;5090624;28;20066;-75
2021/05/19 03:10:56;;;;;;;0.63;0.63;;;;;;;-144.31;100.00;58022.63;5089393;28;20032;-74
2021/05/19 03:13:22;;;;;;;0.60;0.60;;;;;;;-144.31;100.00;58022.63;5090576;28;20032;-76
2021/05/19 03:15:47;;;;;;;0.70;0.70;;;;;;;-144.31;100.00;58022.63;5093161;28;20410;-76
2021/05/19 03:18:13;;;;;;;0.70;0.70;;;;;;;-144.31;100.00;58022.63;5093290;28;20030;-76
2021/05/19 03:20:38;;;;;;;0.70;0.70;;;;;;;-144.31;100.00;58022.63;5092942;28;20493;-76
2021/05/19 03:23:04;;;;;;;0.60;0.60;;;;;;;-144.31;100.00;58022.63;5088167;28;20474;-77
2021/05/19 03:25:29;;;;;;;0.70;0.70;;;;;;;-144.31;100.00;58022.63;5090612;28;20055;-76
2021/05/19 03:27:55;;;;;;;0.60;0.60;;;;;;;-144.31;100.00;58022.63;5087833;28;20114;-75
2021/05/19 03:30:21;;;;;;;0.70;0.70;;;;;;;-144.31;100.00;58022.63;5090339;28;20120;-77
2021/05/19 03:32:47;;;;;;;0.65;0.65;;;;;;;-144.31;100.00;58022.63;5089129;28;20433;-76
2021/05/19 03:35:13;;;;;;;0.70;0.70;;;;;;;-144.31;100.00;58022.63;5089309;28;20032;-76
2021/05/19 03:37:39;;;;;;;0.65;0.65;;;;;;;-144.31;100.00;58022.63;5090394;28;20399;-75
2021/05/19 03:40:07;;;;;;;0.70;0.70;;;;;;;-144.31;100.00;58022.63;5090727;28;20220;-76
2021/05/19 03:42:33;;;;;;;0.70;0.70;;;;;;;-144.31;100.00;58022.63;5093535;28;20020;-76
2021/05/19 03:44:58;;;;;;;0.70;0.70;;;;;;;-144.31;100.00;58022.63;5091896;28;20028;-77
2021/05/19 03:47:24;;;;;;;0.60;0.60;;;;;;;-144.31;100.00;58022.63;5090746;28;20028;-76
2021/05/19 03:49:50;;;;;;;0.60;0.60;;;;;;;-144.31;100.00;58022.63;5091809;28;20127;-75
2021/05/19 03:52:16;;;;;;;0.63;0.63;;;;;;;-144.31;100.00;58022.63;5090058;28;20546;-76
2021/05/19 03:54:45;;;;;;;0.68;0.68;;;;;;;-144.31;100.00;58022.63;5088734;28;20032;-75
2021/05/19 03:57:10;;;;;;;0.70;0.70;;;;;;;-144.31;100.00;58022.63;5088107;28;20044;-76
2021/05/19 03:59:36;;;;;;;0.60;0.60;;;;;;;-144.31;100.00;58022.63;5088041;28;20114;-76
2021/05/19 04:02:03;;;;;;;0.70;0.70;;;;;;;-144.31;100.00;58022.63;5090085;28;20050;-75
2021/05/19 04:04:28;;;;;;;0.60;0.60;;;;;;;-144.31;100.00;58022.63;5088135;28;20024;-75
2021/05/19 04:06:54;;;;;;;0.60;0.60;;;;;;;-144.31;100.00;58022.63;5089756;28;20024;-74
2021/05/19 04:09:19;;;;;;;0.70;0.70;;;;;;;-144.31;100.00;58022.63;5087817;28;20439;-76
2021/05/19 04:11:45;;;;;;;0.60;0.60;;;;;;;-144.31;100.00;58022.63;5087785;28;20114;-76
2021/05/19 04:14:11;;;;;;;0.70;0.70;;;;;;;-144.31;100.00;58022.63;5089521;28;20016;-76
2021/05/19 04:16:37;;;;;;;0.60;0.60;;;;;;;-144.31;100.00;58022.63;5087995;28;20031;-76
2021/05/19 04:19:04;;;;;;;0.70;0.70;;;;;;;-144.31;100.00;58022.63;5087751;28;20465;-75
2021/05/19 04:21:29;;;;;;;0.70;0.70;;;;;;;-144.31;100.00;58022.63;5087248;28;20395;-75
2021/05/19 04:23:55;;;;;;;0.70;0.70;;;;;;;-144.31;100.00;58022.63;5089271;28;20040;-76
2021/05/19 04:26:20;;;;;;;0.70;0.70;;;;;;;-144.31;100.00;58022.63;5088668;28;20032;-75
2021/05/19 04:28:45;;;;;;;0.68;0.68;;;;;;;-144.31;100.00;58022.63;5087383;28;20043;-76
2021/05/19 04:31:11;;;;;;;0.60;0.60;;;;;;;-144.31;100.00;58022.63;5087395;28;20051;-75
2021/05/19 04:33:41;;;;;;;0.70;0.70;;;;;;;-144.31;100.00;58022.63;5088402;28;20055;-76
2021/05/19 04:36:06;;;;;;;0.70;0.70;;;;;;;-144.31;100.00;58022.63;5091976;28;20059;-75
2021/05/19 04:38:32;;;;;;;0.70;0.70;;;;;;;-144.31;100.00;58022.63;5100209;28;20051;-74
2021/05/19 04:40:58;;;;;;;0.60;0.60;;;;;;;-144.31;100.00;58022.63;5099337;28;20020;-77
2021/05/19 04:43:24;;;;;;;0.63;0.63;;;;;;;-144.31;100.00;58022.63;5093356;28;20031;-77
2021/05/19 04:45:49;;;;;;;0.70;0.70;;;;;;;-144.31;100.00;58022.63;5092632;28;20478;-76
2021/05/19 04:48:15;;;;;;;0.60;0.60;;;;;;;-144.31;100.00;58022.63;5091889;28;20077;-76
2021/05/19 04:50:40;;;;;;;0.70;0.70;;;;;;;-144.31;100.00;58022.63;5092734;28;20032;-76
2021/05/19 04:53:06;;;;;;;0.70;0.70;;;;;;;-144.31;100.00;58022.63;5091491;28;20383;-75
2021/05/19 04:55:35;;;;;;;0.60;0.60;;;;;;;-144.31;100.00;58022.63;5092192;28;20035;-76
2021/05/19 04:58:04;;;;;;;0.60;0.60;;;;;;;-144.31;100.00;58022.63;5091945;28;20080;-75
2021/05/19 05:00:31;;;;;;;0.70;0.70;;;;;;;-144.31;100.00;58022.63;5090401;28;20093;-76
2021/05/19 05:02:56;;;;;;;0.70;0.70;;;;;;;-144.31;100.00;58022.63;5090200;28;20041;-75
2021/05/19 05:05:22;;;;;;;0.70;0.70;;;;;;;-144.31;100.00;58022.63;5089962;28;20696;-76
2021/05/19 05:07:50;;;;;;;0.60;0.60;;;;;;;-144.31;100.00;58022.63;5090397;28;20024;-75
2021/05/19 05:10:18;;;;;;;0.80;0.80;;;;;;;-144.31;100.00;58022.63;5088570;28;20046;-76
2021/05/19 05:12:45;;;;;;;0.75;0.75;;;;;;;-144.31;100.00;58022.63;5084893;28;20089;-75
2021/05/19 05:15:11;;;;;;;0.60;0.60;;;;;;;-144.31;100.00;58022.63;5092129;28;20028;-74
2021/05/19 05:17:37;;;;;;;0.60;0.60;;;;;;;-144.31;100.00;58022.63;5089709;28;20021;-75
2021/05/19 05:20:05;;;;;;;0.70;0.70;;;;;;;-144.31;100.00;58022.63;5091156;28;20027;-75
2021/05/19 05:22:31;;;;;;;0.60;0.60;;;;;;;-144.31;100.00;58022.63;5089853;28;20031;-76
2021/05/19 05:24:56;;;;;;;0.60;0.60;;;;;;;-144.31;100.00;58022.63;5090142;28;20028;-76
2021/05/19 05:27:21;;;;;;;0.63;0.63;;;;;;;-144.31;100.00;58022.63;5091057;28;20539;-76
2021/05/19 05:29:49;;;;;;;0.60;0.60;;;;;;;-144.31;100.00;58022.63;5091040;28;20027;-75
2021/05/19 05:32:15;;;;;;;0.60;0.60;;;;;;;-144.31;100.00;58022.63;5089512;28;20085;-76
2021/05/19 05:34:40;;;;;;;0.50;0.50;;;;;;;-144.31;100.00;58022.63;5090446;28;20031;-77
2021/05/19 05:37:08;;;;;;;0.50;0.50;;;;;;;-144.31;100.00;58022.63;5089526;28;20398;-75
2021/05/19 05:39:36;;;;;;;0.55;0.55;;;;;;;-144.31;100.00;58022.63;5089901;28;20117;-76
2021/05/19 05:42:01;;;;;;;0.60;0.60;;;;;;;-144.31;100.00;58022.63;5088833;28;20028;-76
2021/05/19 05:44:27;;;;;;;0.60;0.60;;;;;;;-144.31;100.00;58022.63;5088413;28;20031;-75
2021/05/19 05:46:52;;;;;;;0.70;0.70;;;;;;;-144.31;100.00;58022.63;5088263;28;20038;-75
2021/05/19 05:49:18;;;;;;;0.57;0.57;;;;;;;-144.31;100.00;58022.63;5088442;28;20028;-76
2021/05/19 05:51:43;;;;;;;0.50;0.50;;;;;;;-144.31;100.00;58022.63;5090975;28;20024;-75
2021/05/19 05:54:10;;;;;;;0.50;0.50;;;;;;;-144.31;100.00;58022.63;5090125;28;20038;-76
2021/05/19 05:56:36;;;;;;;0.50;0.50;;;;;;;-144.31;100.00;58022.63;5089135;28;20103;-75
2021/05/19 05:59:02;;;;;;;0.50;0.50;;;;;;;-144.31;100.00;58022.63;5087899;28;20115;-76
2021/05/19 06:01:29;;;;;;;0.60;0.60;;;;;;;-144.31;100.00;58022.63;5088748;28;20032;-76
2021/05/19 06:03:55;;;;;;;;;;;;;;;-144.31;100.00;58022.63;5090400;28;20028;-75
2021/05/19 06:06:23;;;;;;;0.60;0.60;;;;;;;-144.31;100.00;58022.63;5088241;28;19920;-76
2021/05/19 06:08:48;;;;;;;0.50;0.50;;;;;;;-144.31;100.00;58022.63;5089695;28;20035;-75
2021/05/19 06:11:13;;;;;;;0.60;0.60;;;;;;;-144.31;100.00;58022.63;5090541;28;20407;-76
2021/05/19 06:13:39;;;;;;;0.57;0.57;;;;;;;-144.31;100.00;58022.63;5089954;28;20471;-75
2021/05/19 06:16:05;;;;;;;0.50;0.50;;;;;;;-144.31;100.00;58022.63;5088255;28;20450;-76
2021/05/19 06:18:30;;;;;;;0.50;0.50;;;;;;;-144.31;100.00;58022.63;5088393;28;20032;-76
2021/05/19 06:20:55;;;;;;;0.60;0.60;;;;;;;-144.31;100.00;58022.63;5082397;28;21349;-75
2021/05/19 06:23:21;;;;;;;0.55;0.55;;;;;;;-144.31;100.00;58022.63;5086146;28;20031;-76
2021/05/19 06:25:46;;;;;;;0.40;0.40;;;;;;;-144.31;100.00;58022.63;5088171;28;20028;-75
2021/05/19 06:28:12;;;;;;;0.50;0.50;;;;;;;-144.31;100.00;58022.63;5083253;28;21044;-74
2021/05/19 06:30:40;;;;;;;0.60;0.60;;;;;;;-144.31;100.00;58022.63;5074108;28;20024;-76
2021/05/19 06:33:05;;;;;;;0.50;0.50;;;;;;;-144.31;100.00;58022.63;5087905;28;20024;-77
2021/05/19 06:35:30;;;;;;;0.50;0.50;;;;;;;-144.31;100.00;58022.63;5089863;28;20039;-77
2021/05/19 06:37:56;;;;;;;0.50;0.50;;;;;;;-144.31;100.00;58022.63;5089017;28;20443;-77
2021/05/19 06:40:22;;;;;;;0.50;0.50;;;;;;;-144.31;100.00;58022.63;5090014;28;20034;-77
2021/05/19 06:42:48;;;;;;;0.40;0.40;;;;;;;-144.31;100.00;58022.63;5086285;28;20033;-77
2021/05/19 06:45:14;;;;;;;0.60;0.60;;;;;;;-144.31;100.00;58022.63;5088560;28;20035;-77
2021/05/19 06:47:39;;;;;;;0.63;0.63;;;;;;;-144.31;100.00;58022.63;5085366;28;20028;-77
2021/05/19 06:50:06;;;;;;;0.43;0.43;;;;;;;-144.31;100.00;58022.63;5082186;28;20110;-77
2021/05/19 06:52:31;;;;;;;0.50;0.50;;;;;;;-144.31;100.00;58022.63;5085766;28;20031;-77
2021/05/19 06:55:01;;;;;;;0.50;0.50;;;;;;;-144.31;100.00;58022.63;5086642;28;20402;-77
2021/05/19 06:57:26;;;;;;;0.50;0.50;;;;;;;-144.31;100.00;58022.63;5083847;28;20425;-73
2021/05/19 06:59:51;;;;;;;0.47;0.47;;;;;;;-144.31;100.00;58022.63;5084380;28;20491;-77
2021/05/19 07:02:19;;;;;;;0.50;0.50;;;;;;;-144.31;100.00;58022.63;5087250;28;20024;-77
2021/05/19 07:04:44;;;;;;;0.50;0.50;;;;;;;-144.31;100.00;58022.63;5084862;28;20024;-74
2021/05/19 07:07:10;;;;;;;0.40;0.40;;;;;;;-144.31;100.00;58022.63;5085268;28;20059;-74
2021/05/19 07:09:36;;;;;;;0.47;0.47;;;;;;;-144.31;100.00;58022.63;5084672;28;20431;-74
2021/05/19 07:12:02;;;;;;;0.50;0.50;;;;;;;-144.31;100.00;58022.63;5085294;28;20030;-74
2021/05/19 07:14:31;;;;;;;0.50;0.50;;;;;;;-144.31;100.00;58022.63;5082734;28;20027;-74
2021/05/19 07:16:57;;;;;;;0.57;0.57;;;;;;;-144.31;100.00;58022.63;5081751;28;20073;-74
2021/05/19 07:19:23;;;;;;;0.43;0.43;;;;;;;-144.31;100.00;58022.63;5085617;28;20102;-74
2021/05/19 07:21:51;;;;;;;0.50;0.50;;;;;;;-144.31;100.00;58022.63;5084821;28;20482;-74
2021/05/19 07:24:19;;;;;;;0.60;0.60;;;;;;;-144.31;100.00;58022.63;5084621;28;20782;-74
2021/05/19 07:26:47;;;;;;;0.60;0.60;;;;;;;-144.31;100.00;58022.63;5083993;28;20085;-76
2021/05/19 07:29:13;;;;;;;0.52;0.52;;;;;;;-144.31;100.00;58022.63;5083594;28;20273;-75
2021/05/19 07:31:40;;;;;;;0.60;0.60;;;;;;;-144.31;100.00;58022.63;5085063;28;20119;-74
2021/05/19 07:34:06;;;;;;;0.50;0.50;;;;;;;-144.31;100.00;58022.63;5084737;28;20464;-75
2021/05/19 07:36:31;;;;;;;0.60;0.60;;;;;;;-144.31;100.00;58022.63;5086284;28;20619;-75
2021/05/19 07:38:57;;;;;;;0.60;0.60;;;;;;;-144.31;100.00;58022.63;5086087;28;20506;-74
2021/05/19 07:41:27;;;;;;;0.60;0.60;;;;;;;-144.31;100.00;58022.63;5085545;28;20479;-74
2021/05/19 07:43:52;;;;;;;0.52;0.52;;;;;;;-144.31;100.00;58022.63;5073207;28;20560;-74
2021/05/19 07:46:18;;;;;;;0.57;0.50;;;;;;;-144.31;100.00;58022.63;5082841;28;20530;-75
2021/05/19 07:48:43;;;;;;;0.50;0.50;;;;;;;-144.31;100.00;58022.63;5085861;28;20024;-75
2021/05/19 07:51:09;;;;;;;0.50;0.50;;;;;;;-144.31;100.00;58022.63;5086920;28;20049;-75
2021/05/19 07:53:35;;;;;;;0.50;0.50;;;;;;;-144.31;100.00;58022.63;5087860;28;20036;-75
2021/05/19 07:56:10;;;;;;;0.50;0.50;;;;;;;-144.31;100.00;58022.63;5087213;28;20092;-74
2021/05/19 07:58:39;;;;;;;0.50;0.50;;;;;;;-144.31;100.00;58022.63;5086161;28;20023;-72
2021/05/19 08:01:11;;;;;;;0.40;0.40;;;;;;;-144.31;100.00;58022.63;5086646;28;20034;-75
2021/05/19 08:03:37;;;;;;;0.40;0.40;;;;;;;-144.31;100.00;58022.63;5097085;28;20020;-72
2021/05/19 08:06:03;;;;;;;0.50;0.50;;;;;;;-144.31;100.00;58022.63;5073141;28;20043;-73
2021/05/19 08:08:28;;;;;;;0.40;0.40;;;;;;;-144.31;100.00;58022.63;5065924;28;20039;-74
2021/05/19 08:10:55;;;;;;;0.50;0.50;;;;;;;-144.31;100.00;58022.63;5076346;28;20028;-74
2021/05/19 08:13:21;;;;;;;0.50;0.50;;;;;;;-144.31;100.00;58022.63;5090946;28;20445;-74
2021/05/19 08:15:46;;;;;;;0.40;0.40;;;;;;;-144.31;100.00;58022.63;5091206;28;20024;-73
2021/05/19 08:18:12;;;;;;;0.30;0.30;;;;;;;-144.31;100.00;58022.63;5090259;28;20157;-76
2021/05/19 08:20:39;;;;;;;0.45;0.45;;;;;;;-144.31;100.00;58022.63;5091188;28;20028;-74
2021/05/19 08:23:05;;;;;;;0.40;0.40;;;;;;;-144.31;100.00;58022.63;5091517;28;20127;-74
2021/05/19 08:25:32;;;;;;;0.40;0.40;;;;;;;-144.31;100.00;58022.63;5091509;28;20024;-74
2021/05/19 08:27:58;;;;;;;0.40;0.40;;;;;;;-144.31;100.00;58022.63;5090597;28;20505;-75
2021/05/19 08:30:24;;;;;;;0.40;0.40;;;;;;;-144.31;100.00;58022.63;5090612;28;20036;-74
2021/05/19 08:32:51;;;;;;;0.50;0.40;;;;;;;-144.31;100.00;58022.63;5091279;28;20527;-73
2021/05/19 08:35:19;;;;;;;0.40;0.40;;;;;;;-144.31;100.00;58022.63;5089741;28;20103;-74
2021/05/19 08:37:47;;;;;;;0.47;0.47;;;;;;;-144.31;100.00;58022.63;5090101;28;20455;-75
2021/05/19 08:40:12;;;;;;;0.50;0.50;;;;;;;-144.31;100.00;58022.63;5089647;28;20057;-73
2021/05/19 08:42:38;;;;;;;0.40;0.40;;;;;;;-144.31;100.00;58022.63;5085618;28;20020;-73
2021/05/19 08:45:08;;;;;;;0.50;0.50;;;;;;;-144.31;100.00;58022.63;5076550;28;20040;-75
2021/05/19 08:47:34;;;;;;;0.50;0.50;;;;;;;-144.31;100.00;58022.63;5089258;28;20032;-75
2021/05/19 08:50:01;;;;;;;0.50;0.50;;;;;;;-144.31;100.00;58022.63;5089922;28;20371;-75
2021/05/19 08:52:27;;;;;;;0.60;0.60;;;;;;;-144.31;100.00;58022.63;5089629;28;20047;-76
2021/05/19 08:54:54;;;;;;;0.60;0.60;;;;;;;-144.31;100.00;58022.63;5091134;28;20412;-75
2021/05/19 08:57:21;;;;;;;0.40;0.40;;;;;;;-144.31;100.00;58022.63;5090807;28;20052;-78
2021/05/19 08:59:46;;;;;;;0.50;0.50;;;;;;;-144.31;100.00;58022.63;5088445;28;20425;-76
2021/05/19 09:02:17;;;;;;;0.40;0.40;;;;;;;-144.31;100.00;58022.63;5092971;28;21094;-75
2021/05/19 09:04:44;;;;;;;0.50;0.50;;;;;;;-144.31;100.00;58022.63;5088786;28;20097;-76
2021/05/19 09:07:19;;;;;;;0.50;0.50;;;;;;;-144.31;100.00;58022.63;5076714;28;20090;-75
2021/05/19 09:09:45;;;;;;;0.45;0.45;;;;;;;-144.31;100.00;58022.63;5069423;28;20055;-76
2021/05/19 09:12:15;;;;;;;0.47;0.47;;;;;;;-144.31;100.00;58022.63;5069182;28;20574;-76
2021/05/19 09:14:43;;;;;;;0.50;0.50;;;;;;;-144.31;100.00;58022.63;5089615;28;20161;-74
2021/05/19 09:17:31;;;;;;;0.68;0.68;;;;;;;-144.31;100.00;58022.63;5090036;28;20365;-75
2021/05/19 09:20:04;;;;;;;0.40;0.40;;;;;;;-144.31;100.00;58022.63;5085984;28;20027;-75
2021/05/19 09:22:33;;;;;;;0.50;0.50;;;;;;;-144.31;100.00;58022.63;5076486;28;20162;-74
2021/05/19 09:25:02;;;;;;;0.45;0.45;;;;;;;-144.31;100.00;58022.63;5080606;28;20122;-75
2021/05/19 09:27:48;;;;;;;0.40;0.40;;;;;;;-144.31;100.00;58022.63;5080852;28;20095;-75
2021/05/19 09:30:14;;;;;;;0.40;0.40;;;;;;;-144.31;100.00;58022.63;5104783;28;20023;-75
2021/05/19 09:32:42;;;;;;;0.40;0.40;;;;;;;-144.31;100.00;58022.63;5082331;28;20408;-73
2021/05/19 09:35:08;;;;;;;0.47;0.47;;;;;;;-144.31;100.00;58022.63;5082030;28;20028;-76
2021/05/19 09:37:34;;;;;;;0.50;0.50;;;;;;;-144.31;100.00;58022.63;5080158;28;20324;-75
2021/05/19 09:40:03;;;;;;;0.50;0.50;;;;;;;-144.31;100.00;58022.63;5076262;28;20483;-75
2021/05/19 09:42:46;;;;;;;0.30;0.30;;;;;;;-144.31;100.00;58022.63;5089350;28;20034;-77
2021/05/19 09:45:40;;;;;;;0.57;0.57;;;;;;;-144.31;100.00;58022.63;5087140;28;20443;-75
2021/05/19 09:48:06;;;;;;;0.30;0.30;;;;;;;-144.31;100.00;58022.63;5074679;28;20023;-74
2021/05/19 09:50:42;;;;;;;0.40;0.40;;;;;;;-144.31;100.00;58022.63;5082813;28;20021;-77
2021/05/19 09:53:13;;;;;;;0.40;0.40;;;;;;;-144.31;100.00;58022.63;5090878;28;20117;-76
2021/05/19 09:55:41;;;;;;;0.50;0.50;;;;;;;-144.31;100.00;58022.63;5085857;28;20032;-77
2021/05/19 09:58:10;;;;;;;0.40;0.40;;;;;;;-144.31;100.00;58022.63;5074900;28;20103;-75
2021/05/19 10:00:36;;;;;;;0.50;0.50;;;;;;;-144.31;100.00;58022.63;5080632;28;20082;-76
2021/05/19 10:03:03;;;;;;;0.40;0.40;;;;;;;-144.31;100.00;58022.63;5077220;28;20020;-76
2021/05/19 10:06:06;;;;;;;;;;;;;;;-144.31;100.00;58022.63;5079526;28;20058;-76
2021/05/19 10:08:20;;;;;;;0.50;0.50;;;;;;;-144.31;100.00;58022.63;5072186;28;20007;-75
2021/05/19 10:10:48;;;;;;;0.50;0.50;;;;;;;-144.31;100.00;58022.63;5080522;28;20038;-74
2021/05/19 10:13:15;;;;;;;0.55;0.55;;;;;;;-144.31;100.00;58022.63;5087110;28;20028;-75
2021/05/19 10:15:40;;;;;;;0.40;0.40;;;;;;;-144.31;100.00;58022.63;5088060;28;20056;-74
2021/05/19 10:18:10;;;;;;;0.50;0.50;;;;;;;-144.31;100.00;58022.63;5089132;28;20503;-76
2021/05/19 10:20:40;;;;;;;0.50;0.50;;;;;;;-144.31;100.00;58022.63;5088881;28;20615;-76
2021/05/19 10:23:07;;;;;;;0.57;0.50;;;;;;;-144.31;100.00;58022.63;5091120;28;20035;-77
2021/05/19 10:25:42;;;;;;;0.40;0.40;;;;;;;-144.31;100.00;58022.63;5090400;28;20012;-76
2021/05/19 10:28:16;;;;;;;0.50;0.50;;;;;;;-144.31;100.00;58022.63;5091297;28;20062;-75
2021/05/19 10:30:44;;;;;;;0.40;0.40;;;;;;;-144.31;100.00;58022.63;5110570;28;20028;-77
2021/05/19 10:33:29;;;;;;;0.40;0.40;;;;;;;-144.31;100.00;58022.63;5091363;28;20057;-75
2021/05/19 10:35:56;;;;;;;0.40;0.40;;;;;;;-144.31;100.00;58022.63;5094034;28;20049;-78
2021/05/19 10:38:28;;;;;;;0.52;0.52;;;;;;;-144.31;100.00;58022.63;5094093;28;20535;-77
2021/05/19 10:40:59;;;;;;;0.40;0.40;;;;;;;-144.31;100.00;58022.63;5090980;28;20098;-75
2021/05/19 10:43:51;;;;;;;0.40;0.40;;;;;;;-144.31;100.00;58022.63;5092680;28;20032;-76
2021/05/19 10:47:08;;;;;;;0.50;0.50;;;;;;;-144.31;100.00;58022.63;5090654;28;20024;-74
2021/05/19 10:49:42;;;;;;;0.52;0.52;;;;;;;-144.31;100.00;58022.63;5089652;28;20032;-75
2021/05/19 10:52:19;;;;;;;0.50;0.50;;;;;;;-144.31;100.00;58022.63;5090620;28;20550;-79
2021/05/19 10:57:52;;;;;;;0.50;0.50;;;;;;;-144.31;100.00;58022.63;5083644;28;20145;-77
2021/05/19 11:00:22;;;;;;;0.40;0.40;;;;;;;-144.31;100.00;58022.63;5090729;28;20019;-75
2021/05/19 11:02:58;;;;;;;0.40;0.40;;;;;;;-144.31;100.00;58022.63;5091071;28;20047;-77
2021/05/19 11:05:37;;;;;;;0.40;0.40;;;;;;;-144.31;100.00;58022.63;5082766;28;20558;-77
2021/05/19 11:08:09;;;;;;;0.40;0.40;;;;;;;-144.31;100.00;58022.63;5085041;28;20020;-75
2021/05/19 11:10:38;;;;;;;0.40;0.40;;;;;;;-144.31;100.00;58022.63;5083875;28;20077;-77
2021/05/19 11:13:05;;;;;;;0.50;0.50;;;;;;;-144.31;100.00;58022.63;5080297;28;20119;-76
2021/05/19 11:18:18;;;;;;;0.38;0.38;;;;;;;-144.31;100.00;58022.63;5088003;28;20084;-76
2021/05/19 11:20:47;;;;;;;0.40;0.40;;;;;;;-144.31;100.00;58022.63;5089861;28;20662;-76